Black River, NY

11:48 AM EST on February 21, 2017 (GMT -0500)
Corner of Rogers and Waddingham road | | Change Station

Elev 423 ft 44.06 °N, 75.84 °W | Updated 35 seconds ago

Mostly Cloudy
Mostly Cloudy
44.6 °F
Feels Like 45 °F
N
0.0
Wind Variable Wind from East
Gusts 1.3 mph

Today
High -- | Low -- °F
--% Chance of Precip.
Yesterday
High -- | Low -- °F
Precip. -- in
Pressure 30.11 in
Visibility 10.0 miles
Clouds Scattered Clouds 16000 ft
Windchill 45 °F
Dew Point 24 °F
Humidity 43%
Rainfall 0.00 in
Snow Depth Not available.
6:52 AM 5:41 PM
Waning Crescent, 24% visible
METAR KGTB 211558Z AUTO 15012KT 10SM SCT160 02/M10 A3008 RMK AO2 SLP195 T00241099
Pressure 30.11 in
Visibility 10.0 miles
Clouds Scattered Clouds 16000 ft
Windchill 45 °F
Dew Point 24 °F
Humidity 43%
Rainfall 0.00 in
Snow Depth Not available.
6:52 AM 5:41 PM
Waning Crescent, 24% visible
METAR KGTB 211558Z AUTO 15012KT 10SM SCT160 02/M10 A3008 RMK AO2 SLP195 T00241099

Get Your Daily Forecast Email!

Thanks for signing up!

Be on the lookout for a verification email in your inbox.

You'll start receiving the daily forecast at 8 AM.

×

10-Day Weather Forecast

Almanac

Astronomy

Feb. 21, 2017 Rise Set
Actual Time
Civil Twilight
Nautical Twilight
Astronomical Twilight
Moon
Length of Visible Light
Length of Day
Tomorrow will be .
, % of the Moon is Illuminated

Today's Extremes

State Highs State Lows

Community

WunderPhotos

Upload Photos

1,962,540 photos uploaded!

WunderBlog® & News

Nearby

Air Quality

  Air Quality AQ Index Pollutant
Not available.

Snow Depth

Station Depth Elevation

Earthquake Activity

City Distance Mag. Time & Date
Minimum magnitude displayed is 2.5.

Coastal Water Temperatures

Place Temperature

Stations

Nearby Weather Stations

Station Location Temp. Windchill Dew Point Humidity Wind Precip. Elev Updated Type
                   

Watches & Warnings

There are currently no watches in effect.